• Join FlightAware (Why Join?)
  • Login
  • US Flag 
01:30PM EST


 

Airport Tracker/Info


-or-


 

Live Flight TrackerFlight Track Log ✈ UAL1116 ✈ 04-Jan-2014 ✈ KSFO - KDEN

Flight Track Log - Related Links

Times and Time Zones

All times are in EST time to prevent confusion due to time zone crossing. See the UAL1116 flight status page for this flight to view local times or setup timezone preferences in your user account.

Time Position Orientation Groundspeed Altitude Reporting Facility
EST Latitude Longitude Course Direction KTS MPH feet Rate Location/Type
12:09AM 37.6500 -122.3500 67° East 170 196 1,100  Level Northern Cal TRACON
12:10AM 37.6833 -122.3000 50° Northeast 213 245 4,000 2,880 Climbing Northern Cal TRACON
12:11AM 37.7167 -122.2333 58° Northeast 255 293 6,600 3,180 Climbing Northern Cal TRACON
12:12AM 37.7833 -122.1500 45° Northeast 276 318 10,400 2,280 Climbing Northern Cal TRACON
12:14AM 37.8264 -121.9847 72° East 355 409 12,800 1,920 Climbing Oakland Center
12:15AM 37.7715 -121.6300 67° East  Level Estimated
12:15AM 37.8597 -121.8531 72° East 392 451 15,500  Level Oakland Center
12:16AM 37.8936 -121.7197 76° East 405 466 18,100 2,040 Climbing Oakland Center
12:17AM 37.9076 -121.6057 67° East  Level Estimated
12:19AM 38.0067 -121.2725 72° East 462 532 23,900  Level Oakland Center
12:20AM 38.0461 -121.1167 72° East 467 537 25,400 1,320 Climbing Oakland Center
12:21AM 38.0847 -120.9542 73° East 482 555 26,700 1,800 Climbing Oakland Center
12:22AM 38.1206 -120.7533 77° East 490 564 29,100 2,160 Climbing Oakland Center
12:23AM 38.1506 -120.5917 77° East 478 550 31,100 1,800 Climbing Oakland Center
12:24AM 38.1700 -120.5669 76° East  Level FlightAware Approximate
12:24AM 38.1789 -120.4306 77° East 471 542 32,800  Level Oakland Center
12:25AM 38.2072 -120.2719 77° East 464 534 34,300 1,320 Climbing Oakland Center
12:26AM 38.2353 -120.1142 77° East 460 529 35,600 1,320 Climbing Oakland Center
12:27AM 38.2631 -119.9575 77° East 457 526 37,000 660 Climbing Oakland Center
12:28AM 38.2881 -119.8036 78° East 449 517 37,000  Level Oakland Center
12:29AM 38.3161 -119.6486 77° East 448 516 37,000  Level Oakland Center
12:30AM 38.3428 -119.4914 78° East 453 521 37,000  Level Oakland Center
12:31AM 38.3708 -119.3239 78° East 456 525 37,000  Level Oakland Center
12:32AM 38.3967 -119.1656 78° East 458 527 37,000  Level Oakland Center
12:33AM 38.4239 -119.0064 78° East 460 529 37,000  Level Oakland Center
12:34AM 38.4503 -118.8464 78° East 463 533 37,000  Level Oakland Center
12:35AM 38.4753 -118.6864 79° East 463 533 37,000  Level Oakland Center
12:36AM 38.5022 -118.5250 78° East 466 536 37,000  Level Oakland Center
12:37AM 38.5283 -118.3636 78° East 468 539 37,000  Level Oakland Center
12:38AM 38.5531 -118.2039 79° East 463 533 37,000  Level Oakland Center
12:39AM 38.5819 -118.0203 79° East 465 535 37,000  Level Oakland Center
12:40AM 38.6064 -117.8594 79° East 462 532 37,000  Level Oakland Center
12:41AM 38.6314 -117.6975 79° East 461 531 37,000  Level Oakland Center
12:42AM 38.6556 -117.5356 79° East 461 531 37,000  Level Oakland Center
12:43AM 38.6800 -117.3747 79° East 460 529 37,000  Level Oakland Center
12:44AM 38.7042 -117.2114 79° East 463 533 37,000  Level Oakland Center
12:45AM 38.7186 -117.1139 79° East 462 532 37,000  Level Salt Lake Center
12:46AM 38.7417 -116.9497 80° East 464 534 37,000  Level Salt Lake Center
12:47AM 38.7658 -116.7850 79° East 467 537 37,000  Level Salt Lake Center
12:48AM 38.7903 -116.6208 79° East 467 537 37,000  Level Salt Lake Center
12:49AM 38.8136 -116.4561 80° East 468 539 37,000  Level Salt Lake Center
12:50AM 38.8369 -116.2928 80° East 465 535 37,000  Level Salt Lake Center
12:51AM 38.8583 -116.1300 80° East 464 534 37,000  Level Salt Lake Center
12:52AM 38.8814 -115.9661 80° East 465 535 37,000  Level Salt Lake Center
12:53AM 38.9075 -115.7700 80° East 465 535 37,000  Level Salt Lake Center
12:54AM 38.9303 -115.6078 80° East 464 534 37,000  Level Salt Lake Center
12:55AM 38.9522 -115.4450 80° East 463 533 37,000  Level Salt Lake Center
12:56AM 38.9733 -115.2786 81° East 467 537 37,000  Level Salt Lake Center
12:57AM 38.9961 -115.1128 80° East 472 543 37,000  Level Salt Lake Center
12:58AM 39.0161 -114.9489 81° East 467 537 37,000  Level Salt Lake Center
12:59AM 39.0378 -114.7833 80° East 470 541 37,000  Level Salt Lake Center
01:00AM 39.0603 -114.6153 80° East 476 548 37,000  Level Salt Lake Center
01:01AM 39.0914 -114.4492 76° East 477 549 37,000  Level Salt Lake Center
01:02AM 39.1206 -114.2836 77° East 475 547 37,000  Level Salt Lake Center
01:03AM 39.1500 -114.1189 77° East 473 544 37,000  Level Salt Lake Center
01:04AM 39.1794 -113.9522 77° East 475 547 37,000  Level Salt Lake Center
01:05AM 39.2092 -113.7858 77° East 477 549 37,000  Level Salt Lake Center
01:06AM 39.2436 -113.5822 78° East 483 556 37,000 -360 Level Salt Lake Center
01:07AM 39.2725 -113.4128 78° East 484 557 36,300 -840 Descending Salt Lake Center
01:08AM 39.3011 -113.2428 78° East 484 557 35,400 -960 Descending Salt Lake Center
01:09AM 39.3300 -113.0736 77° East 483 556 34,400 -1,020 Descending Salt Lake Center
01:10AM 39.3569 -112.9061 78° East 478 550 33,400 -1,020 Descending Salt Lake Center
01:11AM 39.3836 -112.7478 78° East 459 528 32,400 -1,020 Descending Salt Lake Center
01:12AM 39.4114 -112.5800 78° East 447 514 31,400 -720 Descending Salt Lake Center
01:13AM 39.4378 -112.4222 78° East 449 517 31,000 -240 Descending Salt Lake Center
01:14AM 39.4628 -112.2594 79° East 460 529 31,000  Level Salt Lake Center
01:15AM 39.4892 -112.0969 78° East 464 534 31,000  Level Salt Lake Center
01:16AM 39.5147 -111.9322 79° East 468 539 31,000  Level Salt Lake Center
01:17AM 39.5406 -111.7672 78° East 469 540 31,000  Level Salt Lake Center
01:18AM 39.5653 -111.6025 79° East 470 541 31,000  Level Salt Lake Center
01:19AM 39.5908 -111.4361 79° East 472 543 31,000  Level Salt Lake Center
01:20AM 39.6192 -111.2422 79° East 474 545 31,000  Level Salt Lake Center
01:21AM 39.6447 -111.0822 78° East 473 544 31,000  Level Salt Lake Center
01:23AM 39.6689 -110.9228 79° East 471 542 31,000  Level Salt Lake Center
01:24AM 39.6953 -110.7319 80° East 479 551 31,000  Level Salt Lake Center
01:25AM 39.7200 -110.5672 79° East 484 557 31,000  Level Salt Lake Center
01:26AM 39.7433 -110.4036 79° East 482 555 31,000  Level Salt Lake Center
01:27AM 39.7697 -110.2144 80° East 478 550 31,000  Level Salt Lake Center
01:28AM 39.7800 -110.0436 85° East 494 568 31,000  Level Salt Lake Center
01:29AM 39.7839 -109.8697 88° East 502 578 31,000  Level Salt Lake Center
01:30AM 39.7903 -109.6667 88° East 505 581 31,000  Level Salt Lake Center
01:30AM 39.7928 -109.5783 88° East 504 580 31,000  Level Denver Center
01:31AM 39.7969 -109.4025 88° East 506 582 31,000  Level Denver Center
01:32AM 39.8019 -109.1986 88° East 504 580 31,000  Level Denver Center
01:33AM 39.8047 -109.0233 89° East 504 580 31,000  Level Denver Center
01:34AM 39.8072 -108.8475 89° East 501 577 31,000  Level Denver Center
01:35AM 39.8108 -108.6708 88° East 502 578 31,000  Level Denver Center
01:36AM 39.8153 -108.4628 88° East 510 587 31,000  Level Denver Center
01:37AM 39.8175 -108.2839 89° East 514 592 31,000  Level Denver Center
01:38AM 39.8206 -108.1075 89° East 511 588 31,000  Level Denver Center
01:39AM 39.8219 -107.9317 89° East 507 583 31,000  Level Denver Center
01:40AM 39.8247 -107.7244 89° East 512 589 31,000  Level Denver Center
01:41AM 39.8261 -107.5500 89° East 507 583 31,000  Level Denver Center
01:42AM 39.8275 -107.3731 89° East 509 586 31,000  Level Denver Center
01:43AM 39.8289 -107.1797 89° East 508 585 31,000  Level Denver Center
01:44AM 39.8289 -106.9944 90° East 508 585 31,000  Level Denver Center
01:45AM 39.8297 -106.8092 90° East 508 585 31,000 -120 Level Denver Center
01:46AM 39.8300 -106.6247 90° East 505 581 30,800 -600 Descending Denver Center
01:47AM 39.8308 -106.4528 90° East 502 578 29,800 -1,140 Descending Denver Center
01:48AM 39.8303 -106.2697 90° East 506 582 28,600 -1,800 Descending Denver Center
01:49AM 39.8300 -106.0569 90° East 492 566 26,200 -2,580 Descending Denver Center
01:50AM 39.8292 -105.8883 90° East 471 542 23,500 -2,580 Descending Denver Center
01:51AM 39.8250 -105.7342 92° East 461 531 21,000 -2,280 Descending Denver Center
01:52AM 39.8075 -105.5839 99° East 426 490 19,000 -1,680 Descending Denver Center
01:53AM 39.7889 -105.4372 99° East 413 475 17,700 -1,080 Descending Denver Center
01:54AM 39.7753 -105.2939 97° East 376 433 16,900 -1,440 Descending Denver Center
01:55AM 39.8264 -105.1839 59° Northeast 359 413 14,800 -2,100 Descending Denver Center
01:56AM 39.8822 -105.0819 54° Northeast 347 399 12,700 -2,100 Descending Denver Center
01:57AM 39.9372 -104.9819 54° Northeast 340 391 10,600 -1,380 Descending Denver Center
01:58AM 39.9892 -104.8919 53° Northeast 309 356 10,000 -600 Descending Denver Center
01:59AM 40.0392 -104.8219 47° Northeast 270 311 9,400 -600 Descending Denver Center
02:00AM 40.0994 -104.8022 14° North 229 264 8,800 -600 Descending Denver Center
02:01AM 40.0828 -104.7292 107° East 228 262 8,300 -420 Descending Denver Center
02:02AM 40.0319 -104.6900 149° Southeast 212 244 8,000 -660 Descending Denver Center
02:04AM 39.9789 -104.6856 176° South 196 226 7,000 -900 Descending Denver Center
02:05AM 39.9347 -104.6864 181° South 163 188 6,200 -840 Descending Denver Center
02:06AM 39.8928 -104.6867 180° South 151 174 5,400 -840 Descending Denver Center
02:08AM 39.8617 -104.6732 168° South  Level Estimated
02:15AM 39.8617 -104.6732 168° South  Level Estimated
02:16AM 39.8617 -104.6732 168° South  Level Estimated